This is the latest recevied weather packets stored in our database for station/object KD9IXX-13. If no packets are shown the sender has not sent any weather packets the latest 10 day(s).
| Time | Temp. | Humidity | Pressure | Rain* | Wind** | Luminosity | Snow |
|---|---|---|---|---|---|---|---|
| 1787877002 | 22.78° C | 73% | 1017.8 hPa | 0 mm | - | 3 W/m² | - |
| 1787876102 | 23.33° C | 70% | 1017.9 hPa | 0 mm | - | 10 W/m² | - |
| 1787875802 | 23.89° C | 69% | 1017.7 hPa | 0 mm | - | 13 W/m² | - |
| 1787874902 | 24.44° C | 67% | 1017.7 hPa | 0 mm | - | 26 W/m² | - |
| 1787874602 | 24.44° C | 65% | 1017.8 hPa | 0 mm | - | 29 W/m² | - |
| 1787873702 | 25° C | 65% | 1017.8 hPa | 0 mm | - | 42 W/m² | - |
| 1787872802 | 25.56° C | 66% | 1017.8 hPa | 0 mm | - | 55 W/m² | - |
| 1787872502 | 25.56° C | 65% | 1017.5 hPa | 0 mm | - | 59 W/m² | - |
| 1787872202 | 25.56° C | 65% | 1017.6 hPa | 0 mm | - | 65 W/m² | - |
| 1787871902 | 25.56° C | 65% | 1017.8 hPa | 0 mm | - | 89 W/m² | - |
| 1787871302 | 26.11° C | 65% | 1017.7 hPa | 0 mm | - | 110 W/m² | - |
| 1787871002 | 26.11° C | 65% | 1017.6 hPa | 0 mm | - | 116 W/m² | - |
| 1787870702 | 26.11° C | 65% | 1017.6 hPa | 0 mm | - | 128 W/m² | - |
| 1787870401 | 25.56° C | 65% | 1017.7 hPa | 0 mm | - | 148 W/m² | - |
| 1787869502 | 25° C | 68% | 1017.8 hPa | 0 mm | - | 73 W/m² | - |
| 1787869202 | 25° C | 69% | 1017.7 hPa | 0 mm | - | 132 W/m² | - |
| 1787868002 | 25.56° C | 67% | 1017.6 hPa | 0 mm | - | 120 W/m² | - |
| 1787867702 | 26.11° C | 67% | 1017.8 hPa | 0 mm | - | 109 W/m² | - |
| 1787867402 | 26.67° C | 65% | 1017.9 hPa | 0 mm | - | 155 W/m² | - |
| 1787866802 | 26.11° C | 67% | 1017.6 hPa | 0 mm | - | 125 W/m² | - |
| 1787866202 | 26.67° C | 64% | 1017.7 hPa | 0 mm | - | 104 W/m² | - |
| 1787865902 | 28.33° C | 61% | 1017.7 hPa | 0 mm | - | 127 W/m² | - |
| 1787865602 | 28.89° C | 59% | 1017.6 hPa | 0 mm | - | 433 W/m² | - |
| 1787865302 | 28.33° C | 61% | 1017.7 hPa | 0 mm | - | 432 W/m² | - |
| 1787865002 | 27.22° C | 63% | 1017.6 hPa | 0 mm | - | 474 W/m² | - |
* Rain latest hour (hover to see other rain measurements)
** Current wind speed in m/s (hover to see current wind gust speed)